createdAt,value
2023-04-08T00:01:33.731Z,90.06
2023-04-08T00:06:35.724Z,89.76
2023-04-08T00:11:38.045Z,89.92
2023-04-08T00:16:44.830Z,90.25
2023-04-08T00:21:51.281Z,90.76
2023-04-08T00:26:56.526Z,91.03
2023-04-08T00:32:04.058Z,91.19
2023-04-08T00:37:05.727Z,91.29
2023-04-08T00:42:07.512Z,91.74
2023-04-08T00:47:16.207Z,91.74
2023-04-08T00:52:18.001Z,92.24
2023-04-08T00:57:21.932Z,92.52
2023-04-08T01:02:35.320Z,93.03
2023-04-08T01:07:38.644Z,92.80
2023-04-08T01:12:49.654Z,93.17
2023-04-08T01:17:56.342Z,92.85
2023-04-08T01:23:00.857Z,93.48
2023-04-08T01:28:13.746Z,94.18
2023-04-08T01:33:18.850Z,95.44
2023-04-08T01:38:21.653Z,95.37
2023-04-08T01:43:24.582Z,95.93
2023-04-08T01:48:27.340Z,97.30
2023-04-08T01:53:29.013Z,97.19
2023-04-08T01:58:35.269Z,98.45
2023-04-08T02:03:37.813Z,98.34
2023-04-08T02:08:39.584Z,98.70
2023-04-08T02:13:46.615Z,99.20
2023-04-08T02:18:58.593Z,99.19
2023-04-08T02:24:04.646Z,99.88
2023-04-08T02:29:13.677Z,100.00
2023-04-08T02:34:19.112Z,100.00
2023-04-08T02:39:21.107Z,100.00
2023-04-08T02:44:24.874Z,100.00
2023-04-08T02:49:26.581Z,100.00
2023-04-08T02:54:30.688Z,100.00
2023-04-08T02:59:37.715Z,100.00
2023-04-08T03:04:44.105Z,100.00
2023-04-08T03:09:46.160Z,100.00
2023-04-08T03:14:50.346Z,100.00
2023-04-08T03:19:54.473Z,100.00
2023-04-08T03:24:56.387Z,100.00
2023-04-08T03:30:00.312Z,100.00
2023-04-08T03:35:10.480Z,100.00
2023-04-08T03:40:12.808Z,100.00
2023-04-08T03:45:14.474Z,100.00
2023-04-08T03:50:16.145Z,100.00
2023-04-08T03:55:18.229Z,100.00
2023-04-08T04:00:24.542Z,100.00
2023-04-08T04:05:26.216Z,100.00
2023-04-08T04:10:27.874Z,100.00
2023-04-08T04:15:35.098Z,100.00
2023-04-08T04:20:40.532Z,100.00
2023-04-08T04:25:42.620Z,100.00
2023-04-08T04:30:44.356Z,100.00
2023-04-08T04:35:50.906Z,100.00
2023-04-08T04:40:52.810Z,100.00
2023-04-08T04:45:54.826Z,100.00
2023-04-08T04:50:57.632Z,100.00
2023-04-08T04:56:02.215Z,100.00
2023-04-08T05:01:06.280Z,100.00
2023-04-08T05:06:07.998Z,100.00
2023-04-08T05:11:12.952Z,100.00
2023-04-08T05:16:19.370Z,100.00
2023-04-08T05:21:24.023Z,100.00
2023-04-08T05:26:26.370Z,100.00
2023-04-08T05:31:31.123Z,100.00
2023-04-08T05:36:35.343Z,100.00
2023-04-08T05:41:37.014Z,100.00
2023-04-08T05:46:38.873Z,100.00
2023-04-08T05:51:40.569Z,100.00
2023-04-08T05:56:42.262Z,100.00
2023-04-08T06:01:48.558Z,100.00
2023-04-08T06:06:52.737Z,100.00
2023-04-08T06:11:54.430Z,100.00
2023-04-08T06:16:58.591Z,100.00
2023-04-08T06:22:00.356Z,100.00
2023-04-08T06:27:04.445Z,100.00
2023-04-08T06:32:08.632Z,100.00
2023-04-08T06:37:12.837Z,100.00
2023-04-08T06:42:14.509Z,100.00
2023-04-08T06:47:36.659Z,100.00
2023-04-08T06:52:38.426Z,100.00
2023-04-08T06:57:42.598Z,100.00
2023-04-08T07:02:46.613Z,100.00
2023-04-08T07:07:53.041Z,100.00
2023-04-08T07:12:54.922Z,100.00
2023-04-08T07:17:57.178Z,100.00
2023-04-08T07:23:02.043Z,100.00
2023-04-08T07:28:06.474Z,100.00
2023-04-08T07:33:08.247Z,100.00
2023-04-08T07:38:14.805Z,100.00
2023-04-08T07:43:21.690Z,100.00
2023-04-08T07:48:25.754Z,100.00
2023-04-08T07:53:30.172Z,100.00
2023-04-08T07:58:34.187Z,99.78
2023-04-08T08:03:39.510Z,99.74
2023-04-08T08:08:43.703Z,99.53
2023-04-08T08:13:48.043Z,98.88
2023-04-08T08:18:52.958Z,98.49
2023-04-08T08:23:57.062Z,96.81
2023-04-08T08:28:58.888Z,97.07
2023-04-08T08:34:00.825Z,98.26
2023-04-08T08:39:04.852Z,96.69
2023-04-08T08:44:07.732Z,96.17
2023-04-08T08:49:09.484Z,94.57
2023-04-08T08:54:11.327Z,94.42
2023-04-08T08:59:15.652Z,94.78
2023-04-08T09:04:20.480Z,94.38
2023-04-08T09:25:24.713Z,86.91
2023-04-08T09:30:29.937Z,87.00
2023-04-08T09:35:31.718Z,87.23
2023-04-08T09:40:36.425Z,86.45
2023-04-08T09:45:41.597Z,86.34
2023-04-08T09:50:44.892Z,85.71
2023-04-08T09:55:51.317Z,86.17
2023-04-08T10:00:54.908Z,85.77
2023-04-08T10:06:00.170Z,85.33
2023-04-08T10:11:02.091Z,85.66
2023-04-08T10:16:25.368Z,86.11
2023-04-08T10:21:50.207Z,86.69
2023-04-08T10:26:51.982Z,85.47
2023-04-08T10:31:53.963Z,86.18
2023-04-08T10:36:59.092Z,85.05
2023-04-08T10:42:02.668Z,84.37
2023-04-08T10:47:04.724Z,84.31
2023-04-08T10:52:09.678Z,83.78
2023-04-08T10:57:11.446Z,83.91
2023-04-08T11:02:14.800Z,83.01
2023-04-08T11:07:21.195Z,82.84
2023-04-08T11:12:25.746Z,82.50
2023-04-08T11:17:30.434Z,82.95
2023-04-08T11:22:34.540Z,81.75
2023-04-08T11:27:36.745Z,81.03
2023-04-08T11:32:39.028Z,80.89
2023-04-08T11:37:42.057Z,80.21
2023-04-08T11:42:47.208Z,79.36
2023-04-08T11:47:49.204Z,77.55
2023-04-08T11:52:53.680Z,76.51
2023-04-08T11:58:03.318Z,76.04
2023-04-08T12:03:09.694Z,75.89
2023-04-08T12:08:11.654Z,74.82
2023-04-08T12:13:13.352Z,75.61
2023-04-08T12:18:15.021Z,73.49
2023-04-08T12:23:16.894Z,70.24
2023-04-08T12:28:18.583Z,68.80
2023-04-08T12:33:20.639Z,67.79
2023-04-08T12:38:22.394Z,66.98
2023-04-08T12:43:24.569Z,61.28
2023-04-08T12:48:28.535Z,60.86
2023-04-08T12:53:30.422Z,62.70
2023-04-08T12:58:32.144Z,60.85
2023-04-08T13:03:35.496Z,58.25
2023-04-08T13:08:37.470Z,56.65
2023-04-08T13:13:39.411Z,59.10
2023-04-08T13:18:41.546Z,57.25
2023-04-08T13:23:43.339Z,53.94
2023-04-08T13:33:52.306Z,50.04
2023-04-08T13:38:57.509Z,45.52
2023-04-08T13:43:59.745Z,47.25
2023-04-08T13:49:03.191Z,44.71
2023-04-08T13:54:05.127Z,44.25
2023-04-08T13:59:07.338Z,42.89
2023-04-08T14:04:12.025Z,41.98
2023-04-08T14:09:16.084Z,39.35
2023-04-08T14:14:17.807Z,40.78
2023-04-08T14:19:19.697Z,40.07
2023-04-08T14:24:23.588Z,39.80
2023-04-08T14:29:26.635Z,39.02
2023-04-08T14:34:29.541Z,39.12
2023-04-08T14:39:31.255Z,38.07
2023-04-08T14:44:33.081Z,37.75
2023-04-08T14:49:34.786Z,35.88
2023-04-08T14:54:39.537Z,35.95
2023-04-08T14:59:41.246Z,38.17
2023-04-08T15:04:43.181Z,41.83
2023-04-08T15:09:44.948Z,43.94
2023-04-08T15:14:46.650Z,44.33
2023-04-08T15:19:51.005Z,45.53
2023-04-08T15:24:55.405Z,48.28
2023-04-08T15:29:57.271Z,50.15
2023-04-08T15:34:59.632Z,50.61
2023-04-08T15:40:06.172Z,51.41
2023-04-08T15:45:08.680Z,53.49
2023-04-08T15:50:11.085Z,53.90
2023-04-08T15:55:13.036Z,55.05
2023-04-08T16:00:16.648Z,55.44
2023-04-08T16:05:21.083Z,56.82
2023-04-08T16:10:22.861Z,58.16
2023-04-08T16:15:24.604Z,59.27
2023-04-08T16:20:27.801Z,59.78
2023-04-08T16:25:30.365Z,60.87
2023-04-08T16:30:32.165Z,61.10
2023-04-08T16:35:36.449Z,62.29
2023-04-08T16:40:39.216Z,63.47
2023-04-08T16:45:43.997Z,65.69
2023-04-08T16:50:46.078Z,67.32
2023-04-08T16:55:50.251Z,68.42
2023-04-08T17:00:54.407Z,68.96
2023-04-08T17:06:12.170Z,69.53
2023-04-08T17:11:15.078Z,71.06
2023-04-08T17:16:18.040Z,71.62
2023-04-08T17:21:20.349Z,72.39
2023-04-08T17:26:23.461Z,73.73
2023-04-08T17:31:27.721Z,76.23
2023-04-08T17:36:31.984Z,76.27
2023-04-08T17:41:40.484Z,76.72
2023-04-08T17:46:43.115Z,77.81
2023-04-08T17:51:47.384Z,78.16
2023-04-08T17:56:49.637Z,79.35
2023-04-08T18:01:53.862Z,79.80
2023-04-08T18:06:56.611Z,80.03
2023-04-08T18:11:58.328Z,80.60
2023-04-08T18:17:00.288Z,80.89
2023-04-08T18:22:04.562Z,82.91
2023-04-08T18:27:06.410Z,82.74
2023-04-08T18:32:08.236Z,82.38
2023-04-08T18:37:11.142Z,82.49
2023-04-08T18:42:12.840Z,84.07
2023-04-08T18:47:14.648Z,84.64
2023-04-08T18:52:16.438Z,83.71
2023-04-08T18:57:18.225Z,84.46
2023-04-08T19:02:22.847Z,84.96
2023-04-08T19:07:27.821Z,85.65
2023-04-08T19:12:29.706Z,86.01
2023-04-08T19:17:33.682Z,86.43
2023-04-08T19:22:35.596Z,86.46
2023-04-08T19:27:37.618Z,87.04
2023-04-08T19:32:39.421Z,88.13
2023-04-08T19:37:43.459Z,89.17
2023-04-08T19:42:47.430Z,88.94
2023-04-08T19:47:49.388Z,89.90
2023-04-08T19:52:51.312Z,90.64
2023-04-08T19:57:54.021Z,90.29
2023-04-08T20:02:56.204Z,90.92
2023-04-08T20:07:59.076Z,89.80
2023-04-08T20:13:00.837Z,92.02
2023-04-08T20:18:02.675Z,92.10
2023-04-08T20:23:04.486Z,91.42
2023-04-08T20:28:06.237Z,91.58
2023-04-08T20:33:10.426Z,95.65
2023-04-08T20:38:14.679Z,95.58
2023-04-08T20:43:16.882Z,94.37
2023-04-08T20:48:18.603Z,96.02
2023-04-08T20:53:23.741Z,96.16
2023-04-08T20:58:26.022Z,97.32
2023-04-08T21:03:27.935Z,97.31
2023-04-08T21:08:34.367Z,98.05
2023-04-08T21:13:36.052Z,98.89
2023-04-08T21:18:38.929Z,98.29
2023-04-08T21:23:42.986Z,99.27
2023-04-08T21:28:47.337Z,99.76
2023-04-08T21:33:51.160Z,100.00
2023-04-08T21:38:56.205Z,100.00
2023-04-08T21:43:58.240Z,100.00
2023-04-08T21:49:02.302Z,100.00
2023-04-08T21:54:06.421Z,100.00
2023-04-08T21:59:10.613Z,100.00
2023-04-08T22:04:12.432Z,100.00
2023-04-08T22:09:16.737Z,100.00
2023-04-08T22:14:20.827Z,100.00
2023-04-08T22:19:22.719Z,100.00
2023-04-08T22:24:24.449Z,100.00
2023-04-08T22:29:26.173Z,100.00
2023-04-08T22:34:27.859Z,100.00
2023-04-08T22:39:29.515Z,100.00
2023-04-08T22:44:31.304Z,100.00
2023-04-08T22:49:33.013Z,100.00
2023-04-08T22:54:37.759Z,100.00
2023-04-08T22:59:41.601Z,100.00
2023-04-08T23:04:48.245Z,100.00
2023-04-08T23:09:49.974Z,100.00
2023-04-08T23:14:51.689Z,100.00
2023-04-08T23:19:58.216Z,100.00
2023-04-08T23:25:02.525Z,100.00
2023-04-08T23:30:07.483Z,100.00
2023-04-08T23:35:13.960Z,100.00
2023-04-08T23:40:18.192Z,100.00
2023-04-08T23:45:19.890Z,100.00
2023-04-08T23:50:23.066Z,100.00
2023-04-08T23:55:26.906Z,100.00
